Aviation Digital Data Service (ADDS)

Output produced by METARs form (1832 UTC 16 December 2017)
found at http://www.aviationweather.gov/adds/metars/
 
KIDI 161815Z AUTO 25011KT 10SM BKN029 BKN034 BKN055 02/M03 A3003 RMK A01
KIDI 161755Z AUTO 26012G20KT 9SM SCT028 BKN034 01/M03 A3003 RMK A01
KIDI 161735Z AUTO 25012G17KT 10SM SCT029 BKN038 BKN065 01/M03 A3003 RMK A01
KIDI 161715Z AUTO 25015KT 10SM FEW028 BKN038 BKN065 01/M04 A3003 RMK A01
KIDI 161655Z AUTO 25014G21KT 10SM BKN037 BKN085 01/M04 A3003 RMK A01
KIDI 161635Z AUTO 26014G19KT 10SM SCT037 SCT065 BKN090 01/M04 A3003 RMK A01
KIDI 161615Z AUTO 26015G20KT 10SM FEW090 01/M04 A3004 RMK A01
KIDI 161555Z AUTO 25010KT 10SM FEW090 00/M04 A3004 RMK A01
KIDI 161535Z AUTO 26010G16KT 10SM FEW045 SCT050 BKN090 M00/M04 A3005 RMK A01
KIDI 161515Z AUTO 25012G17KT 10SM SCT035 BKN045 BKN050 M01/M04 A3005 RMK A01
KIDI 161455Z AUTO 25009KT 8SM BKN035 BKN043 BKN050 M01/M03 A3004 RMK A01
KIDI 161435Z AUTO 24007KT 8SM FEW036 SCT048 BKN055 M02/M03 A3004 RMK A01
KIDI 161415Z AUTO 25009G15KT 2 1/2SM BR FEW041 SCT050 M02/M03 A3004 RMK A01
KIDI 161355Z AUTO 25010KT 1 1/2SM BR SCT009 SCT018 BKN047 M02/M03 A3005 RMK A01
KIDI 161335Z AUTO 25013KT 1SM BR FEW003 SCT017 BKN025 M02/M03 A3005 RMK A01
KIDI 161315Z AUTO 25011G17KT 2 1/2SM BR FEW011 SCT022 BKN042 M02/M03 A3004 RMK A01
KIDI 161255Z AUTO 26012G17KT 1 3/4SM BR BKN003 BKN010 OVC050 M03/M04 A3004 RMK A01
KIDI 161235Z AUTO 25012KT 3/4SM BR OVC003 M03/M04 A3003 RMK A01
KIDI 161215Z AUTO 26016G22KT 1 1/4SM BR BKN004 BKN015 OVC021 M03/M05 A3002 RMK A01
KIDI 161155Z AUTO 25014G20KT 8SM BKN024 OVC029 M03/M05 A3002 RMK A01
KIDI 161135Z AUTO 26011G20KT 7SM BKN024 OVC029 M03/M05 A3001 RMK A01
KIDI 161115Z AUTO 25013G19KT 8SM BKN028 OVC036 M03/M06 A3000 RMK A01
KIDI 161055Z AUTO 26012G21KT 4SM HZ BKN036 OVC045 M03/M06 A3000 RMK A01
KIDI 161035Z AUTO 26013G19KT 9SM FEW011 SCT034 BKN041 M03/M07 A3000 RMK A01
KIDI 161015Z AUTO 27014G20KT 9SM FEW039 OVC046 M03/M07 A2999 RMK A01
KIDI 160955Z AUTO 26012KT 10SM FEW028 SCT037 BKN042 M03/M07 A3000 RMK A01
KIDI 160935Z AUTO 26013KT 10SM FEW035 OVC043 M03/M07 A3000 RMK A01
KIDI 160915Z AUTO 27014KT 10SM FEW036 BKN045 OVC060 M03/M07 A3000 RMK A01
KIDI 160855Z AUTO 26011G18KT 10SM BKN042 OVC055 M03/M07 A2999 RMK A01
KIDI 160835Z AUTO 26014G19KT 9SM BKN040 OVC055 M03/M07 A3000 RMK A01
KIDI 160815Z AUTO 26011G19KT 10SM FEW035 BKN046 OVC055 M03/M07 A3001 RMK A01
KIDI 160755Z AUTO 26010G16KT 10SM FEW035 OVC045 M03/M07 A3001 RMK A01
KIDI 160735Z AUTO 25010G16KT 10SM SCT035 BKN042 OVC047 M03/M07 A3000 RMK A01
KIDI 160715Z AUTO 26009KT 10SM SCT033 OVC055 M04/M08 A3000 RMK A01
KIDI 160655Z AUTO 27009G17KT 5SM HZ FEW004 BKN030 OVC055 M03/M08 A2999 RMK A01
KIDI 160635Z AUTO 25010KT 10SM FEW029 SCT034 OVC049 M03/M08 A2998 RMK A01
KIDI 160615Z AUTO 28011KT 10SM SCT034 SCT040 OVC050 M03/M09 A2998 RMK A01
KIDI 160555Z AUTO 27010G16KT 10SM OVC050 M03/M09 A2998 RMK A01
KIDI 160535Z AUTO 28010G16KT 10SM OVC050 M04/M09 A2998 RMK A01
KIDI 160515Z AUTO 28009G17KT 9SM FEW039 OVC050 M04/M09 A2999 RMK A01
KIDI 160455Z AUTO 29012G22KT 6SM HZ FEW034 BKN043 OVC049 M04/M09 A2999 RMK A01
KIDI 160435Z AUTO 28012G26KT 1 1/4SM HZ FEW002 SCT030 OVC047 M04/M08 A2999 RMK A01 VIS 3/4V2 1/2
KIDI 160415Z AUTO 28017G23KT 2 1/2SM BR SCT004 BKN026 OVC050 M04/M06 A2997 RMK A01 VIS 1 1/2V5
KIDI 160355Z AUTO 29011G18KT 1SM BR BKN004 BKN017 OVC025 M04/M06 A2997 RMK A01
KIDI 160335Z AUTO 28010G17KT 3SM HZ SCT025 BKN031 OVC055 M04/M07 A2997 RMK A01
KIDI 160315Z AUTO 28012G17KT 8SM FEW034 OVC050 M04/M08 A2996 RMK A01
KIDI 160255Z AUTO 28008G16KT 8SM FEW034 OVC050 M04/M08 A2996 RMK A01
KIDI 160235Z AUTO 29011G17KT 8SM FEW041 OVC050 M04/M08 A2995 RMK A01
KIDI 160215Z AUTO 29012G22KT 260V320 1SM BR BKN003 BKN041 OVC050 M05/M06 A2995 RMK A01
KIDI 160155Z AUTO 31013G21KT 270V330 1/2SM FZFG OVC003 M05/M06 A2994 RMK A01
KIDI 160135Z AUTO 31010G17KT 5SM HZ FEW007 SCT014 BKN021 M04/M06 A2993 RMK A01
KIDI 160115Z AUTO 26009KT 4SM BR FEW004 BKN025 OVC029 M04/M06 A2992 RMK A01
KIDI 160055Z AUTO 26011KT 7SM FEW004 SCT014 BKN024 M04/M07 A2992 RMK A01
KIDI 160035Z AUTO 25011KT 2SM HZ SCT004 BKN023 OVC033 M04/M07 A2992 RMK A01
KIDI 160015Z AUTO 26010KT 6SM HZ FEW006 BKN025 OVC060 M04/M07 A2991 RMK A01
KIDI 152355Z AUTO 26010KT 9SM SCT022 BKN032 OVC065 M04/M08 A2990 RMK A01
KIDI 152335Z AUTO 26011KT 10SM BKN023 BKN031 OVC036 M04/M09 A2990 RMK A01
KIDI 152315Z AUTO 25008KT 10SM FEW025 BKN030 OVC050 M04/M10 A2990 RMK A01
KIDI 152255Z AUTO 26010KT 10SM FEW026 SCT030 BKN037 M04/M10 A2990 RMK A01
KIDI 152235Z AUTO 26008G14KT 10SM BKN032 OVC041 M04/M10 A2989 RMK A01
KIDI 152215Z AUTO 26010KT 10SM BKN031 BKN036 OVC047 M04/M10 A2988 RMK A01
KIDI 152155Z AUTO 25010KT 10SM SCT036 BKN047 OVC055 M04/M10 A2988 RMK A01
KIDI 152135Z AUTO 24008KT 10SM BKN049 OVC060 M04/M10 A2988 RMK A01
KIDI 152115Z AUTO 27009KT 10SM FEW038 BKN060 OVC070 M04/M11 A2988 RMK A01
KIDI 152055Z AUTO 28009G14KT 260V320 10SM BKN038 BKN050 OVC075 M04/M11 A2988 RMK A01
KIDI 152035Z AUTO 30008G16KT 270V330 10SM OVC037 M04/M11 A2989 RMK A01
KIDI 152015Z AUTO 28013KT 10SM BKN038 M04/M11 A2988 RMK A01
KIDI 151955Z AUTO 28010G17KT 10SM CLR M04/M11 A2988 RMK A01
KIDI 151935Z AUTO 28009G16KT 10SM BKN042 BKN095 M03/M11 A2988 RMK A01
KIDI 151915Z AUTO 29013G19KT 10SM FEW029 OVC040 M04/M10 A2988 RMK A01
KIDI 151855Z AUTO 27014KT 10SM FEW026 OVC039 M04/M09 A2988 RMK A01
KIDI 151835Z AUTO 27011KT 10SM SCT024 BKN038 OVC075 M04/M08 A2988 RMK A01